createdAt,value
2022-12-26T00:00:21.333Z,100893.88
2022-12-26T00:02:47.964Z,100888.47
2022-12-26T00:05:14.623Z,100891.03
2022-12-26T00:07:41.111Z,100891.03
2022-12-26T00:10:08.214Z,100888.47
2022-12-26T00:12:35.359Z,100896.56
2022-12-26T00:15:02.235Z,100884.06
2022-12-26T00:17:28.741Z,100881.34
2022-12-26T00:19:55.278Z,100880.63
2022-12-26T00:22:21.859Z,100877.06
2022-12-26T00:24:48.345Z,100879.91
2022-12-26T00:27:14.889Z,100896.25
2022-12-26T00:29:41.370Z,100900.78
2022-12-26T00:32:07.884Z,100902.75
2022-12-26T00:34:34.618Z,100908.44
2022-12-26T00:37:01.091Z,100913.06
2022-12-26T00:39:27.593Z,100922.41
2022-12-26T00:41:54.137Z,100931.38
2022-12-26T00:44:20.762Z,100931.63
2022-12-26T00:46:47.421Z,100946.13
2022-12-26T00:49:13.975Z,100944.53
2022-12-26T00:51:40.530Z,100938.41
2022-12-26T00:54:07.068Z,100937.69
2022-12-26T00:56:33.623Z,100944.06
2022-12-26T00:59:00.205Z,100944.06
2022-12-26T01:01:30.825Z,100930.56
2022-12-26T01:03:58.113Z,100943.06
2022-12-26T01:06:24.647Z,100944.91
2022-12-26T01:08:52.515Z,100951.19
2022-12-26T01:11:39.314Z,100946.75
2022-12-26T01:14:16.352Z,100935.72
2022-12-26T01:16:45.007Z,100950.91
2022-12-26T01:19:13.153Z,100963.56
2022-12-26T01:21:39.928Z,100963.56
2022-12-26T01:24:07.514Z,100948.47
2022-12-26T01:26:34.517Z,100960.25
2022-12-26T01:29:01.044Z,100965.78
2022-12-26T01:31:27.875Z,100965.66
2022-12-26T01:33:54.425Z,100960.25
2022-12-26T01:36:20.917Z,100952.16
2022-12-26T01:38:47.512Z,100949.47
2022-12-26T01:41:17.661Z,100954.88
2022-12-26T01:43:53.471Z,100947.50
2022-12-26T01:46:24.670Z,100948.22
2022-12-26T01:48:52.122Z,100948.22
2022-12-26T01:51:21.001Z,100957.31
2022-12-26T01:53:52.138Z,100961.84
2022-12-26T01:56:23.824Z,100951.06
2022-12-26T01:58:57.618Z,100960.25
2022-12-26T02:01:28.663Z,100958.41
2022-12-26T02:04:14.039Z,100954.88
2022-12-26T02:06:41.428Z,100956.72
2022-12-26T02:09:09.129Z,100954.13
2022-12-26T02:11:40.934Z,100956.97
2022-12-26T02:14:09.066Z,100967.03
2022-12-26T02:16:37.657Z,100961.75
2022-12-26T02:19:11.038Z,100967.28
2022-12-26T02:21:58.834Z,100961.16
2022-12-26T02:24:43.985Z,100957.59
2022-12-26T02:27:26.687Z,100965.69
2022-12-26T02:30:05.123Z,100971.22
2022-12-26T02:32:48.528Z,100963.97
2022-12-26T02:35:33.980Z,100978.47
2022-12-26T02:38:13.359Z,100971.22
2022-12-26T02:40:57.622Z,100961.53
2022-12-26T02:43:42.577Z,100963.38
2022-12-26T02:46:36.103Z,100962.53
2022-12-26T02:49:13.267Z,100966.34
2022-12-26T02:52:13.839Z,100960.34
2022-12-26T02:55:23.264Z,100961.44
2022-12-26T02:58:22.748Z,100966.22
2022-12-26T03:01:13.420Z,100976.28
2022-12-26T03:04:00.826Z,100979.25
2022-12-26T03:06:49.673Z,100968.59
2022-12-26T03:09:39.078Z,100973.72
2022-12-26T03:12:39.506Z,100968.31
2022-12-26T03:15:10.968Z,100961.09
2022-12-26T03:17:48.835Z,100968.19
2022-12-26T03:20:27.590Z,100970.78
2022-12-26T03:23:00.203Z,100976.16
2022-12-26T03:26:13.426Z,100980.72
2022-12-26T03:28:41.397Z,100986.84
2022-12-26T03:31:11.370Z,100978.13
2022-12-26T03:34:00.130Z,100977.16
2022-12-26T03:36:57.191Z,100970.91
2022-12-26T03:39:54.506Z,100945.03
2022-12-26T03:43:08.734Z,100954.72
2022-12-26T03:46:08.982Z,100952.88
2022-12-26T03:49:16.321Z,100951.88
2022-12-26T03:52:10.969Z,100961.94
2022-12-26T03:55:06.707Z,100962.81
2022-12-26T03:57:59.267Z,100962.81
2022-12-26T04:00:48.965Z,100969.06
2022-12-26T04:03:37.115Z,100988.06
2022-12-26T04:06:25.399Z,100999.84
2022-12-26T04:09:17.907Z,101008.94
2022-12-26T04:12:04.205Z,101007.09
2022-12-26T04:15:24.826Z,101010.78
2022-12-26T04:18:17.078Z,101017.88
2022-12-26T04:21:06.183Z,101001.94
2022-12-26T04:24:01.672Z,101012.75
2022-12-26T04:27:19.504Z,101021.09
2022-12-26T04:30:04.841Z,101021.31
2022-12-26T04:33:03.904Z,101026.13
2022-12-26T04:36:07.073Z,101019.25
2022-12-26T04:38:59.027Z,101030.16
2022-12-26T04:41:46.103Z,101017.66
2022-12-26T04:44:14.124Z,101000.59
2022-12-26T04:46:43.841Z,101000.00
2022-12-26T04:49:31.648Z,101003.78
2022-12-26T04:52:00.247Z,100997.53
2022-12-26T04:54:27.538Z,100992.25
2022-12-26T04:56:54.634Z,100994.81
2022-12-26T04:59:22.474Z,100986.84
2022-12-26T05:02:07.391Z,100971.66
2022-12-26T05:04:52.785Z,100979.00
2022-12-26T05:07:41.104Z,100974.72
2022-12-26T05:10:17.878Z,100973.97
2022-12-26T05:12:44.510Z,100979.63
2022-12-26T05:15:11.756Z,100985.88
2022-12-26T05:17:56.844Z,100980.72
2022-12-26T05:20:38.437Z,101005.00
2022-12-26T05:23:26.693Z,101005.97
2022-12-26T05:26:11.539Z,101008.06
2022-12-26T05:28:44.148Z,101006.22
2022-12-26T05:31:15.866Z,101009.00
2022-12-26T05:34:02.993Z,101001.91
2022-12-26T05:36:33.999Z,101011.69
2022-12-26T05:39:02.045Z,100997.38
2022-12-26T05:41:28.736Z,101011.81
2022-12-26T05:43:55.344Z,101015.38
2022-12-26T05:46:21.856Z,100998.34
2022-12-26T05:48:48.517Z,100995.66
2022-12-26T05:51:15.058Z,100979.47
2022-12-26T05:53:41.806Z,100983.25
2022-12-26T05:56:12.741Z,100978.13
2022-12-26T05:58:40.374Z,100968.31
2022-12-26T06:01:11.616Z,100962.06
2022-12-26T06:03:39.808Z,100964.88
2022-12-26T06:06:07.267Z,100963.03
2022-12-26T06:08:34.397Z,100949.56
2022-12-26T06:11:08.903Z,100955.19
2022-12-26T06:13:36.603Z,100961.56
2022-12-26T06:16:07.795Z,100970.63
2022-12-26T06:18:34.818Z,100986.81
2022-12-26T06:21:06.465Z,100992.56
2022-12-26T06:23:33.648Z,100988.28
2022-12-26T06:26:00.138Z,100997.34
2022-12-26T06:28:27.058Z,100988.53
2022-12-26T06:30:53.638Z,101004.69
2022-12-26T06:33:20.558Z,101001.03
2022-12-26T06:35:47.113Z,101005.44
2022-12-26T06:38:14.431Z,101011.56
2022-12-26T06:40:42.266Z,101009.84
2022-12-26T06:43:09.413Z,101017.81
2022-12-26T06:45:36.164Z,101017.69
2022-12-26T06:48:02.926Z,101026.41
2022-12-26T06:50:29.539Z,101024.69
2022-12-26T06:52:56.087Z,101018.31
2022-12-26T06:55:22.616Z,101030.81
2022-12-26T06:57:52.026Z,101039.00
2022-12-26T07:00:18.781Z,101028.97
2022-12-26T07:02:49.483Z,101028.13
2022-12-26T07:05:16.299Z,101021.84
2022-12-26T07:07:42.791Z,101028.97
2022-12-26T07:10:09.813Z,101030.94
2022-12-26T07:12:36.365Z,101037.28
2022-12-26T07:15:02.973Z,101033.75
2022-12-26T07:17:29.459Z,101033.00
2022-12-26T07:19:55.980Z,101035.81
2022-12-26T07:22:23.178Z,101030.56
2022-12-26T07:24:49.747Z,101033.38
2022-12-26T07:27:16.301Z,101036.06
2022-12-26T07:29:42.830Z,101042.44
2022-12-26T07:32:09.424Z,101039.72
2022-12-26T07:34:36.094Z,101045.13
2022-12-26T07:37:02.908Z,101049.66
2022-12-26T07:39:29.432Z,101047.94
2022-12-26T07:41:58.951Z,101048.81
2022-12-26T07:44:27.171Z,101043.53
2022-12-26T07:46:54.991Z,101045.47
2022-12-26T07:49:22.390Z,101054.44
2022-12-26T07:51:49.396Z,101046.34
2022-12-26T07:54:16.012Z,101041.06
2022-12-26T07:56:42.578Z,101051.97
2022-12-26T07:59:17.451Z,101052.09
2022-12-26T08:01:44.610Z,101048.53
2022-12-26T08:04:13.025Z,101059.44
2022-12-26T08:06:40.013Z,101044.25
2022-12-26T08:09:07.807Z,101053.19
2022-12-26T08:11:35.912Z,101051.47
2022-12-26T08:14:02.835Z,101063.97
2022-12-26T08:16:31.516Z,101060.41
2022-12-26T08:18:58.333Z,101063.09
2022-12-26T08:21:24.877Z,101072.91
2022-12-26T08:23:51.413Z,101061.28
2022-12-26T08:26:22.454Z,101060.66
2022-12-26T08:28:51.287Z,101067.00
2022-12-26T08:31:19.598Z,101060.75
2022-12-26T08:33:46.229Z,101065.19
2022-12-26T08:36:19.089Z,101056.97
2022-12-26T08:38:45.896Z,101045.09
2022-12-26T08:41:12.567Z,101055.63
2022-12-26T08:44:25.209Z,101051.09
2022-12-26T08:46:25.625Z,101051.72
2022-12-26T08:48:52.344Z,101058.38
2022-12-26T08:51:21.820Z,101067.44
2022-12-26T08:53:52.031Z,101077.53
2022-12-26T08:56:21.117Z,101083.22
2022-12-26T08:58:48.054Z,101091.56
2022-12-26T09:01:23.454Z,101086.41
2022-12-26T09:03:56.865Z,101090.25
2022-12-26T09:06:24.575Z,101099.59
2022-12-26T09:08:51.433Z,101096.03
2022-12-26T09:11:21.146Z,101092.34
2022-12-26T09:13:47.925Z,101108.03
2022-12-26T09:16:25.644Z,101101.91
2022-12-26T09:18:58.634Z,101096.75
2022-12-26T09:21:26.118Z,101088.91
2022-12-26T09:24:04.563Z,101101.16
2022-12-26T09:26:32.020Z,101104.34
2022-12-26T09:28:59.100Z,101111.22
2022-12-26T09:31:31.677Z,101106.69
2022-12-26T09:33:58.861Z,101108.28
2022-12-26T09:36:29.536Z,101118.94
2022-12-26T09:38:57.410Z,101117.09
2022-12-26T09:41:29.907Z,101123.38
2022-12-26T09:44:15.984Z,101111.47
2022-12-26T09:47:00.662Z,101126.69
2022-12-26T09:49:38.477Z,101128.41
2022-12-26T09:52:16.734Z,101139.19
2022-12-26T09:54:51.039Z,101138.34
2022-12-26T09:57:23.527Z,101147.06
2022-12-26T10:00:04.499Z,101145.25
2022-12-26T10:02:39.009Z,101137.13
2022-12-26T10:05:06.541Z,101147.94
2022-12-26T10:07:42.054Z,101153.44
2022-12-26T10:10:29.674Z,101159.69
2022-12-26T10:13:14.346Z,101158.75
2022-12-26T10:15:46.884Z,101154.28
2022-12-26T10:18:20.687Z,101148.88
2022-12-26T10:21:02.863Z,101157.84
2022-12-26T10:23:34.117Z,101153.56
2022-12-26T10:26:11.562Z,101150.00
2022-12-26T10:28:44.393Z,101160.94
2022-12-26T10:31:21.394Z,101156.38
2022-12-26T10:34:00.710Z,101157.00
2022-12-26T10:36:39.269Z,101159.47
2022-12-26T10:39:16.915Z,101159.22
2022-12-26T10:41:50.063Z,101159.97
2022-12-26T10:44:16.804Z,101165.25
2022-12-26T10:46:52.032Z,101197.78
2022-12-26T10:49:22.001Z,101207.72
2022-12-26T10:51:50.466Z,101221.72
2022-12-26T10:54:18.548Z,101220.94
2022-12-26T10:56:47.981Z,101219.22
2022-12-26T10:59:20.207Z,101220.19
2022-12-26T11:01:47.693Z,101220.06
2022-12-26T11:04:31.440Z,101226.16
2022-12-26T11:07:11.578Z,101228.72
2022-12-26T11:09:45.601Z,101231.16
2022-12-26T11:12:25.791Z,101238.94
2022-12-26T11:14:59.111Z,101236.59
2022-12-26T11:17:42.650Z,101248.47
2022-12-26T11:20:30.410Z,101248.47
2022-12-26T11:23:21.907Z,101265.63
2022-12-26T11:26:00.201Z,101262.94
2022-12-26T11:28:36.670Z,101266.50
2022-12-26T11:31:06.436Z,101282.66
2022-12-26T11:33:51.202Z,101282.56
2022-12-26T11:36:22.575Z,101279.13
2022-12-26T11:39:02.658Z,101288.19
2022-12-26T11:41:41.708Z,101294.53
2022-12-26T11:44:11.651Z,101303.81
2022-12-26T11:46:55.838Z,101293.47
2022-12-26T11:49:36.219Z,101303.22
2022-12-26T11:52:34.659Z,101308.31
2022-12-26T11:55:01.626Z,101309.53
2022-12-26T11:57:33.223Z,101301.88
2022-12-26T12:00:16.699Z,101315.59
2022-12-26T12:02:44.106Z,101322.94
2022-12-26T12:05:44.923Z,101329.41
2022-12-26T12:08:35.603Z,101334.69
2022-12-26T12:11:13.183Z,101332.97
2022-12-26T12:14:14.612Z,101337.59
2022-12-26T12:17:02.479Z,101341.03
2022-12-26T12:19:37.738Z,101338.25
2022-12-26T12:22:28.942Z,101343.75
2022-12-26T12:25:13.677Z,101344.72
2022-12-26T12:27:49.586Z,101344.72
2022-12-26T12:30:20.584Z,101336.63
2022-12-26T12:33:25.558Z,101341.38
2022-12-26T12:36:10.468Z,101336.44
2022-12-26T12:39:11.009Z,101338.56
2022-12-26T12:41:46.063Z,101343.19
2022-12-26T12:44:21.214Z,101352.25
2022-12-26T12:46:53.545Z,101350.53
2022-12-26T12:49:38.513Z,101341.47
2022-12-26T12:52:10.775Z,101356.88
2022-12-26T12:55:15.100Z,101359.91
2022-12-26T12:57:59.825Z,101354.75
2022-12-26T13:00:33.559Z,101355.16
2022-12-26T13:03:05.771Z,101363.69
2022-12-26T13:05:32.434Z,101370.38
2022-12-26T13:08:14.069Z,101372.50
2022-12-26T13:11:06.528Z,101381.78
2022-12-26T13:14:34.484Z,101384.91
2022-12-26T13:17:06.541Z,101384.69
2022-12-26T13:19:48.710Z,101389.41
2022-12-26T13:22:26.044Z,101385.00
2022-12-26T13:24:59.871Z,101382.19
2022-12-26T13:27:31.405Z,101379.50
2022-12-26T13:29:58.007Z,101382.97
2022-12-26T13:32:30.473Z,101383.94
2022-12-26T13:34:59.477Z,101385.66
2022-12-26T13:37:38.026Z,101388.44
2022-12-26T13:40:30.752Z,101393.06
2022-12-26T13:43:19.872Z,101401.25
2022-12-26T13:45:53.718Z,101408.91
2022-12-26T13:48:26.342Z,101421.69
2022-12-26T13:51:00.386Z,101420.06
2022-12-26T13:53:38.422Z,101422.78
2022-12-26T13:56:33.893Z,101423.94
2022-12-26T13:59:30.252Z,101433.09
2022-12-26T14:03:07.641Z,101434.34
2022-12-26T14:05:40.045Z,101446.25
2022-12-26T14:08:24.796Z,101444.81
2022-12-26T14:11:10.080Z,101447.59
2022-12-26T14:13:52.047Z,101454.16
2022-12-26T14:16:43.501Z,101466.09
2022-12-26T14:19:47.757Z,101463.69
2022-12-26T14:22:26.327Z,101466.38
2022-12-26T14:25:04.748Z,101461.88
2022-12-26T14:27:43.030Z,101469.09
2022-12-26T14:30:20.203Z,101466.59
2022-12-26T14:33:01.956Z,101469.47
2022-12-26T14:35:37.906Z,101470.53
2022-12-26T14:38:38.537Z,101474.41
2022-12-26T14:41:31.727Z,101486.22
2022-12-26T14:44:10.435Z,101487.38
2022-12-26T14:46:38.717Z,101498.53
2022-12-26T14:49:19.074Z,101501.72
2022-12-26T14:51:45.784Z,101501.22
2022-12-26T14:54:21.997Z,101513.31
2022-12-26T14:56:50.777Z,101504.66
2022-12-26T14:59:31.299Z,101513.13
2022-12-26T15:02:28.522Z,101520.50
2022-12-26T15:05:10.972Z,101536.16
2022-12-26T15:08:02.551Z,101543.53
2022-12-26T15:10:50.861Z,101543.91
2022-12-26T15:13:38.904Z,101554.06
2022-12-26T15:16:17.618Z,101559.63
2022-12-26T15:19:31.441Z,101557.81
2022-12-26T15:22:00.599Z,101574.69
2022-12-26T15:27:56.191Z,101582.06
2022-12-26T15:30:43.913Z,101588.59
2022-12-26T15:33:29.205Z,101589.66
2022-12-26T15:36:21.645Z,101600.56
2022-12-26T15:39:18.803Z,101593.38
2022-12-26T15:41:55.684Z,101598.56
2022-12-26T15:44:29.309Z,101596.75
2022-12-26T15:47:02.803Z,101595.78
2022-12-26T15:49:56.767Z,101604.72
2022-12-26T15:52:23.190Z,101613.81
2022-12-26T15:55:11.207Z,101609.59
2022-12-26T15:57:48.155Z,101622.50
2022-12-26T16:00:25.949Z,101620.19
2022-12-26T16:03:29.981Z,101635.69
2022-12-26T16:06:28.572Z,101644.03
2022-12-26T16:09:27.400Z,101641.75
2022-12-26T16:11:56.643Z,101649.97
2022-12-26T16:14:25.945Z,101645.75
2022-12-26T16:16:52.630Z,101650.31
2022-12-26T16:19:27.191Z,101652.31
2022-12-26T16:22:20.183Z,101653.41
2022-12-26T16:24:48.240Z,101653.69
2022-12-26T16:27:18.935Z,101655.66
2022-12-26T16:30:11.225Z,101669.44
2022-12-26T16:32:41.610Z,101669.59
2022-12-26T16:35:24.109Z,101677.13
2022-12-26T16:37:53.006Z,101681.00
2022-12-26T16:40:28.953Z,101684.03
2022-12-26T16:43:18.501Z,101694.22
2022-12-26T16:45:48.769Z,101696.28
2022-12-26T16:48:18.459Z,101699.19
2022-12-26T16:50:57.104Z,101695.88
2022-12-26T16:53:35.613Z,101696.91
2022-12-26T16:56:27.210Z,101699.06
2022-12-26T16:59:07.413Z,101696.53
2022-12-26T17:01:34.827Z,101694.97
2022-12-26T17:04:18.104Z,101698.91
2022-12-26T17:06:53.168Z,101701.84
2022-12-26T17:09:22.516Z,101710.13
2022-12-26T17:11:59.571Z,101706.91
2022-12-26T17:14:35.910Z,101721.47
2022-12-26T17:17:08.903Z,101720.94
2022-12-26T17:19:37.028Z,101719.44
2022-12-26T17:22:17.753Z,101722.41
2022-12-26T17:24:50.472Z,101728.91
2022-12-26T17:27:25.299Z,101726.47
2022-12-26T17:30:19.820Z,101731.25
2022-12-26T17:32:47.890Z,101737.63
2022-12-26T17:35:18.705Z,101737.88
2022-12-26T17:37:46.807Z,101737.94
2022-12-26T17:40:16.379Z,101741.56
2022-12-26T17:42:55.009Z,101740.69
2022-12-26T17:45:24.758Z,101744.16
2022-12-26T17:47:53.277Z,101741.56
2022-12-26T17:50:20.648Z,101745.09
2022-12-26T17:52:47.772Z,101746.19
2022-12-26T17:55:26.198Z,101741.88
2022-12-26T17:57:53.646Z,101733.81
2022-12-26T18:00:23.461Z,101735.72
2022-12-26T18:02:50.179Z,101738.47
2022-12-26T18:05:17.798Z,101751.00
2022-12-26T18:07:46.155Z,101746.50
2022-12-26T18:10:24.494Z,101761.63
2022-12-26T18:12:52.258Z,101768.88
2022-12-26T18:15:19.761Z,101768.06
2022-12-26T18:17:48.448Z,101774.38
2022-12-26T18:20:20.950Z,101786.00
2022-12-26T18:22:47.771Z,101789.56
2022-12-26T18:25:16.615Z,101784.28
2022-12-26T18:27:43.823Z,101788.03
2022-12-26T18:30:30.634Z,101798.81
2022-12-26T18:32:57.104Z,101797.97
2022-12-26T18:35:23.874Z,101801.56
2022-12-26T18:37:52.565Z,101803.31
2022-12-26T18:40:30.945Z,101801.50
2022-12-26T18:42:57.908Z,101806.00
2022-12-26T18:45:24.587Z,101813.22
2022-12-26T18:47:51.380Z,101815.91
2022-12-26T18:50:18.080Z,101823.13
2022-12-26T18:52:48.635Z,101825.00
2022-12-26T18:55:18.308Z,101831.31
2022-12-26T18:57:45.027Z,101838.53
2022-12-26T19:00:14.034Z,101836.81
2022-12-26T19:02:40.925Z,101837.94
2022-12-26T19:05:17.024Z,101848.84
2022-12-26T19:07:44.079Z,101853.47
2022-12-26T19:10:11.220Z,101859.75
2022-12-26T19:12:37.838Z,101863.44
2022-12-26T19:15:04.805Z,101866.03
2022-12-26T19:17:31.326Z,101875.00
2022-12-26T19:19:57.835Z,101879.50
2022-12-26T19:22:24.616Z,101874.22
2022-12-26T19:24:51.152Z,101881.38
2022-12-26T19:27:17.675Z,101888.47
2022-12-26T19:29:44.194Z,101893.81
2022-12-26T19:32:10.922Z,101883.16
2022-12-26T19:34:37.498Z,101893.91
2022-12-26T19:37:04.050Z,101890.50
2022-12-26T19:39:30.533Z,101882.63
2022-12-26T19:41:57.041Z,101897.88
2022-12-26T19:44:23.722Z,101893.50
2022-12-26T19:46:50.232Z,101906.97
2022-12-26T19:49:36.736Z,101903.34
2022-12-26T19:52:03.740Z,101898.88
2022-12-26T19:54:30.270Z,101903.22
2022-12-26T19:56:56.742Z,101910.38
2022-12-26T19:59:23.209Z,101901.41
2022-12-26T20:01:49.808Z,101900.47
2022-12-26T20:04:16.436Z,101900.47
2022-12-26T20:06:42.981Z,101901.22
2022-12-26T20:09:13.066Z,101911.78
2022-12-26T20:11:49.620Z,101909.94
2022-12-26T20:14:18.657Z,101905.38
2022-12-26T20:17:05.095Z,101913.47
2022-12-26T20:19:32.388Z,101908.06
2022-12-26T20:21:58.991Z,101905.38
2022-12-26T20:24:25.786Z,101905.38
2022-12-26T20:26:52.357Z,101909.88
2022-12-26T20:29:19.053Z,101908.06
2022-12-26T20:31:46.039Z,101903.56
2022-12-26T20:34:13.174Z,101919.63
2022-12-26T20:36:40.387Z,101912.53
2022-12-26T20:39:12.806Z,101918.75
2022-12-26T20:41:39.415Z,101917.81
2022-12-26T20:44:06.041Z,101921.38
2022-12-26T20:46:34.266Z,101925.78
2022-12-26T20:49:02.202Z,101925.84
2022-12-26T20:51:36.410Z,101928.59
2022-12-26T20:54:04.190Z,101932.13
2022-12-26T20:56:30.859Z,101926.00
2022-12-26T20:58:59.428Z,101940.16
2022-12-26T21:01:27.468Z,101942.91
2022-12-26T21:03:55.305Z,101940.34
2022-12-26T21:06:25.007Z,101940.47
2022-12-26T21:08:53.254Z,101945.88
2022-12-26T21:11:27.631Z,101939.72
2022-12-26T21:13:56.614Z,101945.22
2022-12-26T21:16:50.693Z,101946.16
2022-12-26T21:19:18.690Z,101945.22
2022-12-26T21:21:47.510Z,101945.34
2022-12-26T21:24:18.237Z,101952.50
2022-12-26T21:26:45.090Z,101945.41
2022-12-26T21:29:15.152Z,101951.69
2022-12-26T21:31:42.831Z,101949.09
2022-12-26T21:34:12.568Z,101950.09
2022-12-26T21:36:39.511Z,101956.44
2022-12-26T21:39:10.185Z,101958.38
2022-12-26T21:41:37.815Z,101964.66
2022-12-26T21:44:04.774Z,101961.06
2022-12-26T21:46:31.694Z,101969.16
2022-12-26T21:48:58.504Z,101964.66
2022-12-26T21:51:25.979Z,101971.81
2022-12-26T21:54:13.262Z,101982.50
2022-12-26T21:56:39.920Z,101978.97
2022-12-26T21:59:25.202Z,101970.06
2022-12-26T22:01:51.866Z,101991.47
2022-12-26T22:04:23.400Z,101994.22
2022-12-26T22:06:50.688Z,101990.66
2022-12-26T22:09:17.858Z,101987.06
2022-12-26T22:12:04.359Z,101991.53
2022-12-26T22:14:31.378Z,102000.44
2022-12-26T22:16:58.330Z,102004.97
2022-12-26T22:19:25.638Z,101999.63
2022-12-26T22:21:53.452Z,102008.59
2022-12-26T22:24:21.709Z,102015.72
2022-12-26T22:26:48.724Z,102016.59
2022-12-26T22:29:15.445Z,102019.34
2022-12-26T22:31:42.145Z,102025.56
2022-12-26T22:34:14.242Z,102023.00
2022-12-26T22:36:41.900Z,102016.91
2022-12-26T22:39:16.200Z,102017.84
2022-12-26T22:41:43.419Z,102017.84
2022-12-26T22:44:12.605Z,102024.00
2022-12-26T22:46:39.850Z,102021.28
2022-12-26T22:49:12.324Z,102031.03
2022-12-26T22:51:39.361Z,102032.84
2022-12-26T22:54:05.894Z,102029.22
2022-12-26T22:56:33.275Z,102029.22
2022-12-26T22:59:05.594Z,102031.84
2022-12-26T23:01:32.240Z,102029.16
2022-12-26T23:04:01.123Z,102039.00
2022-12-26T23:06:33.962Z,102044.28
2022-12-26T23:09:02.949Z,102037.19
2022-12-26T23:11:35.130Z,102042.53
2022-12-26T23:14:04.748Z,102046.16
2022-12-26T23:16:47.523Z,102047.94
2022-12-26T23:19:35.067Z,102044.41
2022-12-26T23:22:02.738Z,102044.41
2022-12-26T23:24:30.775Z,102049.69
2022-12-26T23:27:19.320Z,102053.25
2022-12-26T23:30:04.646Z,102061.25
2022-12-26T23:32:31.864Z,102061.25
2022-12-26T23:34:58.455Z,102064.88
2022-12-26T23:37:25.315Z,102060.44
2022-12-26T23:39:51.894Z,102064.06
2022-12-26T23:42:18.581Z,102065.81
2022-12-26T23:44:45.060Z,102064.00
2022-12-26T23:47:11.601Z,102064.00
2022-12-26T23:49:38.135Z,102059.53
2022-12-26T23:52:04.929Z,102060.38
2022-12-26T23:54:31.559Z,102067.47
2022-12-26T23:56:58.492Z,102059.59
2022-12-26T23:59:25.135Z,102066.72
